Hauptseite
METAR-TAF:

METAR-TAF

Flughäfen :

Valley, Wales

Breite: 53-15N, Länge: 004-32W, Höhe: 1 m

Beobachtung

Neuester Wetterbericht von vor 46 Minuten, um 06:50 UTC
Wind 5 kt aus Nordost
Temperatur 17°C
Luftfeuchtigkeit 59%
Luftdruck 1023 hPa

METAR: EGOV 310650Z AUTO 05005KT //// // NCD 17/09 Q1023

Zeit: 08:36 (07:36 UTC)


TAF: fehlend

Wetterbeobachtungen und Prognosen von mehr als 4000 Flughäfen (METAR und TAF Bericht).

Die verfügbaren Stationen werden durch gelbe und rote Markierungen auf der Karte dargestellt.

Führen Sie die Maus auf sie, um den Namen der Station zu sehen.

Darauf klicken, um die Beobachtung von Wetterbeobachtungen und Prognosen zu sehen.

Um die Karte zu ändern : klicken Sie auf den grünen Tasten mit einem schwarzen Kreuz Zum Vergrößern, auf den grünen Button mit einem Gedankenstrich zu verkleinern, oder auf die grünen Pfeile für benachbarte Karten.


METAR-TAF: